Time;durP1;ratioP1;P1;durP2;ratioP2;P2;SDS_P1;SDS_P2;PMS_P1;PMS_P2;Temp;Humidity;BMP_temperature;BMP_pressure;BME280_temperature;BME280_humidity;BME280_pressure;Samples;Min_cycle;Max_cycle;Signal;HPM_P1;HPM_P2
2020/12/16 00:01:06;;;;;;;63.90;40.28;;;;;;;1.26;89.33;99435.97;1788329;79;21393;-64
2020/12/16 00:03:34;;;;;;;64.58;38.88;;;;;;;1.26;89.33;99429.55;1780614;79;21061;-63
2020/12/16 00:06:01;;;;;;;;;;;;;;;1.27;89.38;99426.97;1782147;79;21550;-63
2020/12/16 00:08:29;;;;;;;62.33;38.17;;;;;;;1.27;89.30;99428.25;1780830;79;20222;-63
2020/12/16 00:10:57;;;;;;;64.00;37.95;;;;;;;1.25;89.34;99419.70;1770261;79;21203;-65
2020/12/16 00:13:26;;;;;;;62.83;35.55;;;;;;;1.28;89.36;99421.37;1786490;79;21497;-63
2020/12/16 00:15:54;;;;;;;66.45;38.95;;;;;;;1.30;89.37;99427.36;1810345;78;21181;-64
2020/12/16 00:18:21;;;;;;;66.05;39.35;;;;;;;1.34;89.41;99426.42;1810082;78;21596;-63
2020/12/16 00:20:50;;;;;;;62.03;37.28;;;;;;;1.37;89.40;99425.09;1804335;78;21172;-64
2020/12/16 00:23:17;;;;;;;68.47;39.53;;;;;;;1.39;89.40;99424.64;1801090;78;21201;-64
2020/12/16 00:25:45;;;;;;;70.32;40.50;;;;;;;1.42;89.42;99422.02;1807490;78;21555;-63
2020/12/16 00:28:13;;;;;;;67.58;38.95;;;;;;;1.46;89.46;99423.69;1801934;78;21216;-64
2020/12/16 00:30:47;;;;;;;63.75;35.68;;;;;;;1.51;89.50;99426.17;1808284;78;21272;-63
2020/12/16 00:33:10;;;;;;;65.47;39.00;;;;;;;1.56;89.54;99427.80;1805633;78;21163;-63
2020/12/16 00:35:37;;;;;;;64.35;38.45;;;;;;;1.62;89.53;99424.73;1786774;78;21636;-64
2020/12/16 00:38:04;;;;;;;63.45;38.95;;;;;;;1.67;89.55;99422.94;1748431;81;21025;-64
2020/12/16 00:40:31;;;;;;;57.88;36.98;;;;;;;1.71;89.52;99423.29;1768300;80;20944;-63
2020/12/16 00:42:59;;;;;;;63.02;38.10;;;;;;;1.78;89.53;99430.05;1768626;80;21133;-64
2020/12/16 00:45:26;;;;;;;61.68;33.75;;;;;;;1.82;89.49;99436.87;1774243;79;21152;-63
2020/12/16 00:47:54;;;;;;;62.70;38.45;;;;;;;1.86;89.51;99437.22;1774684;80;21208;-64
2020/12/16 00:50:21;;;;;;;67.03;39.05;;;;;;;1.91;89.52;99440.56;1775790;78;22158;-64
2020/12/16 00:52:47;;;;;;;64.58;41.68;;;;;;;1.96;89.47;99440.06;1768828;80;21561;-63
2020/12/16 00:55:15;;;;;;;61.25;37.10;;;;;;;2.00;89.48;99444.27;1773726;80;21696;-63
2020/12/16 00:57:44;;;;;;;60.10;36.80;;;;;;;2.06;89.45;99437.31;1766898;80;21146;-63
2020/12/16 01:00:14;;;;;;;59.70;38.10;;;;;;;2.09;89.36;99447.56;1782558;80;22111;-63
2020/12/16 01:02:46;;;;;;;64.22;37.98;;;;;;;2.12;89.36;99447.52;1769583;80;21553;-63
2020/12/16 01:05:16;;;;;;;59.73;35.88;;;;;;;2.16;89.38;99444.02;1758826;81;21766;-64
2020/12/16 01:07:44;;;;;;;62.85;38.50;;;;;;;2.18;89.33;99442.25;1765991;81;21036;-63
2020/12/16 01:10:13;;;;;;;67.35;38.08;;;;;;;2.22;89.36;99446.04;1749002;81;21132;-63
2020/12/16 01:12:43;;;;;;;62.67;37.98;;;;;;;2.24;89.32;99444.70;1755737;81;22201;-63
2020/12/16 01:15:13;;;;;;;58.40;36.33;;;;;;;2.28;89.39;99441.22;1758258;81;21209;-63
2020/12/16 01:17:45;;;;;;;56.80;36.45;;;;;;;2.31;89.29;99441.16;1738401;81;21084;-64
2020/12/16 01:20:13;;;;;;;60.17;38.83;;;;;;;2.33;89.26;99438.56;1733966;81;21111;-64
2020/12/16 01:22:43;;;;;;;;;;;;;;;2.32;89.21;99429.96;1778422;79;21541;-63
2020/12/16 01:25:18;;;;;;;66.97;36.50;;;;;;;2.36;89.25;99438.51;1764510;80;22600;-63
2020/12/16 01:27:57;;;;;;;57.60;35.68;;;;;;;2.39;89.22;99426.41;1830363;76;22893;-63
2020/12/16 01:30:28;;;;;;;57.13;36.10;;;;;;;2.37;89.20;99428.16;1798642;78;21035;-63
2020/12/16 01:32:57;;;;;;;65.60;36.20;;;;;;;2.35;89.15;99419.63;1790621;78;21149;-64
2020/12/16 01:35:27;;;;;;;62.73;37.03;;;;;;;2.37;89.21;99421.71;1797393;78;20933;-64
2020/12/16 01:37:54;;;;;;;72.17;39.75;;;;;;;2.39;89.18;99431.56;1800784;78;21065;-64
2020/12/16 01:40:23;;;;;;;59.23;35.38;;;;;;;2.39;89.23;99430.27;1801532;78;21020;-63
2020/12/16 01:42:50;;;;;;;55.80;36.10;;;;;;;2.41;89.21;99431.10;1799324;78;21000;-64
2020/12/16 01:45:22;;;;;;;58.65;36.33;;;;;;;2.44;89.27;99432.33;1798546;78;21885;-63
2020/12/16 01:47:51;;;;;;;60.17;36.00;;;;;;;2.46;89.27;99437.02;1797274;78;21047;-64
2020/12/16 01:50:19;;;;;;;62.43;35.35;;;;;;;2.48;89.22;99440.00;1805286;78;21537;-63
2020/12/16 01:52:47;;;;;;;;;;;;;;;2.52;89.29;99446.78;1798458;77;21616;-64
2020/12/16 01:55:14;;;;;;;62.38;37.03;;;;;;;2.55;89.22;99454.45;1805260;78;20497;-63
2020/12/16 01:57:49;;;;;;;;;;;;;;;2.54;89.20;99455.34;1803266;78;22549;-63
2020/12/16 02:00:15;;;;;;;63.15;37.95;;;;;;;2.58;89.22;99450.55;1794044;78;20466;-64
2020/12/16 02:02:49;;;;;;;56.70;34.43;;;;;;;2.58;89.22;99462.16;1792027;78;20985;-63
2020/12/16 02:05:20;;;;;;;55.35;34.40;;;;;;;2.60;89.19;99455.22;1802045;78;21040;-63
2020/12/16 02:07:47;;;;;;;57.78;35.50;;;;;;;2.60;89.14;99463.80;1796592;78;21174;-63
2020/12/16 02:10:14;;;;;;;56.80;37.13;;;;;;;2.61;89.16;99456.94;1801464;78;21285;-64
2020/12/16 02:12:41;;;;;;;62.03;37.28;;;;;;;2.59;89.11;99456.11;1794469;78;21186;-63
2020/12/16 02:15:09;;;;;;;55.58;35.00;;;;;;;2.60;89.09;99450.06;1796863;78;21053;-64
2020/12/16 02:17:37;;;;;;;53.60;34.65;;;;;;;2.59;89.17;99453.53;1791991;77;21008;-63
2020/12/16 02:20:08;;;;;;;56.45;35.98;;;;;;;2.61;89.13;99450.49;1790538;78;21228;-63
2020/12/16 02:22:36;;;;;;;55.05;35.48;;;;;;;2.60;89.19;99443.63;1804667;78;21208;-63
2020/12/16 02:25:07;;;;;;;57.58;35.78;;;;;;;2.63;89.24;99443.56;1792558;77;21182;-63
2020/12/16 02:27:36;;;;;;;56.28;33.85;;;;;;;2.63;89.18;99443.56;1796952;78;21521;-63
2020/12/16 02:30:07;;;;;;;54.65;35.03;;;;;;;2.62;89.10;99441.88;1803762;77;21047;-63
2020/12/16 02:32:34;;;;;;;60.60;35.52;;;;;;;2.61;89.15;99447.47;1802259;78;21683;-64
2020/12/16 02:35:02;;;;;;;59.42;35.43;;;;;;;2.62;89.08;99435.42;1806602;78;21614;-64
2020/12/16 02:37:29;;;;;;;62.45;36.03;;;;;;;2.60;89.08;99441.05;1806691;78;21592;-64
2020/12/16 02:39:56;;;;;;;67.42;38.40;;;;;;;2.60;89.27;99443.17;1803859;77;21016;-64
2020/12/16 02:42:27;;;;;;;55.15;35.17;;;;;;;2.62;89.18;99438.00;1802829;78;21036;-63
2020/12/16 02:44:59;;;;;;;54.18;34.33;;;;;;;2.59;89.05;99432.91;1767996;80;20997;-64
2020/12/16 02:47:26;;;;;;;65.15;36.10;;;;;;;2.56;89.03;99430.39;1764067;80;22518;-63
2020/12/16 02:49:54;;;;;;;57.95;36.35;;;;;;;2.53;89.04;99442.05;1735066;81;21558;-64
2020/12/16 02:52:21;;;;;;;55.90;34.80;;;;;;;2.55;89.23;99438.98;1739682;81;21097;-63
2020/12/16 02:54:50;;;;;;;58.90;36.15;;;;;;;2.54;89.12;99443.75;1768389;80;21084;-64
2020/12/16 02:57:17;;;;;;;53.25;34.30;;;;;;;2.53;89.24;99440.77;1743634;81;21263;-64
2020/12/16 02:59:55;;;;;;;59.45;37.05;;;;;;;2.52;89.19;99446.78;1758530;80;21714;-63
2020/12/16 03:02:22;;;;;;;56.55;36.73;;;;;;;2.52;89.32;99444.20;1768536;80;21153;-64
2020/12/16 03:04:49;;;;;;;57.38;36.58;;;;;;;2.53;89.29;99438.19;1763224;80;21137;-63
2020/12/16 03:07:16;;;;;;;59.63;35.45;;;;;;;2.53;89.29;99445.92;1742181;81;20982;-63
2020/12/16 03:09:44;;;;;;;56.77;35.63;;;;;;;2.55;89.34;99449.30;1742255;81;21097;-64
2020/12/16 03:12:11;;;;;;;;;;;;;;;2.54;89.32;99442.45;1745736;81;22105;-64
2020/12/16 03:14:38;;;;;;;;;;;;;;;2.53;89.31;99451.08;1742261;81;20209;-63
2020/12/16 03:17:05;;;;;;;55.43;36.40;;;;;;;2.53;89.36;99443.34;1749088;81;20273;-64
2020/12/16 03:19:32;;;;;;;54.98;33.08;;;;;;;2.53;89.40;99451.08;1739918;81;21050;-63
2020/12/16 03:21:59;;;;;;;60.88;37.88;;;;;;;2.53;89.31;99447.21;1739637;81;21208;-63
2020/12/16 03:24:26;;;;;;;56.80;34.73;;;;;;;2.52;89.39;99453.22;1745999;81;21155;-63
2020/12/16 03:26:53;;;;;;;54.35;34.95;;;;;;;2.54;89.44;99455.34;1747566;80;21070;-63
2020/12/16 03:29:21;;;;;;;54.03;33.63;;;;;;;2.54;89.44;99455.34;1750519;80;21055;-64
2020/12/16 03:31:48;;;;;;;53.42;34.20;;;;;;;2.56;89.51;99452.30;1742640;81;21143;-63
2020/12/16 03:34:15;;;;;;;48.68;33.28;;;;;;;2.58;89.56;99457.00;1737970;81;21223;-63
2020/12/16 03:36:42;;;;;;;54.23;34.08;;;;;;;2.59;89.48;99462.55;1736721;81;21948;-64
2020/12/16 03:39:10;;;;;;;50.08;31.75;;;;;;;2.58;89.42;99465.58;1733081;81;21665;-63
2020/12/16 03:41:37;;;;;;;52.80;33.35;;;;;;;2.58;89.52;99467.31;1737100;81;21104;-63
2020/12/16 03:44:05;;;;;;;53.00;32.88;;;;;;;2.60;89.58;99473.27;1732765;81;21065;-63
2020/12/16 03:46:32;;;;;;;53.87;34.25;;;;;;;2.62;89.60;99474.09;1736144;81;21080;-63
2020/12/16 03:48:59;;;;;;;51.92;33.38;;;;;;;2.63;89.66;99479.64;1738626;81;22565;-63
2020/12/16 03:51:26;;;;;;;53.80;33.05;;;;;;;2.68;89.69;99489.44;1738180;81;21784;-63
2020/12/16 03:53:53;;;;;;;49.55;30.90;;;;;;;2.70;89.70;99487.69;1734970;81;21120;-63
2020/12/16 03:56:21;;;;;;;44.38;29.18;;;;;;;2.73;89.71;99497.94;1733979;81;21170;-63
2020/12/16 03:58:48;;;;;;;;;;;;;;;2.75;89.76;99498.77;1740826;81;21175;-63
2020/12/16 04:01:19;;;;;;;50.88;32.55;;;;;;;2.77;89.76;99496.98;1735510;80;21620;-63
2020/12/16 04:03:46;;;;;;;53.95;32.83;;;;;;;2.81;89.81;99500.38;1738144;81;21888;-63
2020/12/16 04:06:15;;;;;;;53.25;33.55;;;;;;;2.82;89.83;99502.91;1738560;81;21741;-63
2020/12/16 04:08:44;;;;;;;51.90;32.70;;;;;;;2.84;89.82;99506.32;1734160;81;21107;-63
2020/12/16 04:11:15;;;;;;;54.67;36.03;;;;;;;2.85;89.83;99515.74;1741859;81;21238;-63
2020/12/16 04:13:43;;;;;;;54.23;34.25;;;;;;;2.89;89.91;99506.24;1735755;81;21199;-63
2020/12/16 04:16:18;;;;;;;52.53;34.85;;;;;;;2.93;89.89;99514.77;1735199;81;21191;-64
2020/12/16 04:18:47;;;;;;;48.63;30.52;;;;;;;2.96;89.95;99522.44;1733610;81;21531;-63
2020/12/16 04:21:16;;;;;;;58.23;35.35;;;;;;;2.99;90.00;99515.92;1742263;80;21186;-64
2020/12/16 04:23:44;;;;;;;53.35;34.50;;;;;;;3.00;89.95;99517.64;1756237;80;21198;-63
2020/12/16 04:26:11;;;;;;;55.20;33.65;;;;;;;3.04;90.01;99528.30;1767412;80;21200;-64
2020/12/16 04:28:38;;;;;;;61.58;36.05;;;;;;;3.07;89.97;99530.81;1763253;80;21045;-63
2020/12/16 04:31:10;;;;;;;59.50;34.63;;;;;;;3.10;90.04;99528.16;1726878;81;21499;-63
2020/12/16 04:33:37;;;;;;;56.85;35.15;;;;;;;3.13;90.03;99533.27;1729494;81;21041;-64
2020/12/16 04:36:04;;;;;;;49.03;32.73;;;;;;;3.14;90.02;99537.12;1729389;80;21142;-64
2020/12/16 04:38:31;;;;;;;55.25;34.55;;;;;;;3.15;90.03;99544.41;1738739;81;21642;-63
2020/12/16 04:40:58;;;;;;;51.45;32.58;;;;;;;3.16;90.04;99544.81;1732182;80;21673;-64
2020/12/16 04:43:25;;;;;;;52.25;33.00;;;;;;;3.18;90.08;99544.34;1736838;81;21148;-63
2020/12/16 04:45:53;;;;;;;54.18;33.05;;;;;;;3.20;90.07;99547.75;1734182;81;21258;-64
2020/12/16 04:48:21;;;;;;;54.15;33.45;;;;;;;3.21;90.11;99552.02;1728476;81;21654;-63
2020/12/16 04:50:49;;;;;;;50.50;32.28;;;;;;;3.24;90.12;99554.53;1733273;81;22161;-64
2020/12/16 04:53:20;;;;;;;50.48;31.77;;;;;;;3.27;90.14;99557.05;1730709;81;22120;-63
2020/12/16 04:55:48;;;;;;;55.92;32.93;;;;;;;3.30;90.15;99564.73;1729846;80;21679;-64
2020/12/16 04:58:15;;;;;;;53.23;32.58;;;;;;;3.33;90.16;99564.70;1726556;81;21578;-63
2020/12/16 05:00:42;;;;;;;56.58;32.90;;;;;;;3.36;90.18;99564.63;1731519;81;22383;-63
2020/12/16 05:03:11;;;;;;;49.45;30.80;;;;;;;3.36;90.14;99567.21;1732438;81;21872;-63
2020/12/16 05:05:38;;;;;;;50.90;33.38;;;;;;;3.39;90.21;99573.17;1732232;81;21670;-63
2020/12/16 05:08:14;;;;;;;54.80;32.88;;;;;;;3.39;90.18;99574.05;1734544;81;21614;-63
2020/12/16 05:10:48;;;;;;;48.87;30.62;;;;;;;3.43;90.21;99573.53;1733036;81;21573;-63
2020/12/16 05:13:20;;;;;;;47.40;30.02;;;;;;;3.43;90.17;99574.83;1729994;81;21259;-63
2020/12/16 05:15:49;;;;;;;46.53;29.80;;;;;;;3.46;90.25;99579.48;1726514;81;22212;-63
2020/12/16 05:18:19;;;;;;;48.28;30.52;;;;;;;3.47;90.20;99579.03;1729693;80;21101;-63
2020/12/16 05:20:59;;;;;;;47.15;28.23;;;;;;;3.50;90.25;99589.28;1726487;80;21219;-63
2020/12/16 05:23:30;;;;;;;48.40;28.77;;;;;;;3.50;90.22;99595.33;1731639;80;21625;-64
2020/12/16 05:26:10;;;;;;;47.10;30.12;;;;;;;3.52;90.26;99597.86;1735578;80;21224;-64
2020/12/16 05:28:49;;;;;;;86.40;31.95;;;;;;;3.53;90.30;99605.59;1733484;80;21261;-63
2020/12/16 05:31:16;;;;;;;59.83;28.95;;;;;;;3.56;90.32;99608.10;1741227;80;20984;-63
2020/12/16 05:33:48;;;;;;;46.35;27.05;;;;;;;3.57;90.28;99607.66;1756903;80;21641;-63
2020/12/16 05:36:32;;;;;;;46.53;28.65;;;;;;;3.58;90.29;99610.64;1768717;79;20981;-64
2020/12/16 05:39:01;;;;;;;48.23;25.15;;;;;;;3.59;90.28;99614.94;1737509;81;21178;-64
2020/12/16 05:41:33;;;;;;;40.92;26.15;;;;;;;3.61;90.35;99609.72;1736956;81;21648;-63
2020/12/16 05:44:22;;;;;;;49.05;26.02;;;;;;;3.62;90.29;99614.88;1730039;81;21085;-63
2020/12/16 05:46:51;;;;;;;38.25;23.45;;;;;;;3.64;90.34;99610.53;1733239;81;21172;-63
2020/12/16 05:49:27;;;;;;;41.80;24.65;;;;;;;3.64;90.33;99607.95;1737921;81;21140;-64
2020/12/16 05:51:57;;;;;;;35.30;21.23;;;;;;;3.65;90.34;99612.22;1731829;81;21183;-63
2020/12/16 05:54:25;;;;;;;37.03;22.67;;;;;;;3.66;90.35;99615.20;1733617;81;21268;-63
2020/12/16 05:57:14;;;;;;;34.67;22.30;;;;;;;3.67;90.36;99613.05;1731504;81;21176;-64
2020/12/16 05:59:42;;;;;;;32.38;20.50;;;;;;;3.70;90.38;99609.11;1733666;81;21052;-64
2020/12/16 06:02:09;;;;;;;35.70;22.02;;;;;;;3.71;90.36;99610.80;1741673;81;21144;-63
2020/12/16 06:04:40;;;;;;;38.45;22.82;;;;;;;3.71;90.34;99614.67;1739459;81;21682;-63
2020/12/16 06:07:10;;;;;;;36.20;20.48;;;;;;;3.74;90.41;99615.89;1740194;81;21364;-64
2020/12/16 06:09:37;;;;;;;38.60;21.68;;;;;;;3.76;90.40;99615.43;1735672;81;21350;-64
2020/12/16 06:12:09;;;;;;;35.92;21.02;;;;;;;3.77;90.35;99619.70;1731951;81;21041;-64
2020/12/16 06:14:39;;;;;;;41.02;22.65;;;;;;;3.78;90.37;99626.59;1732456;81;21219;-64
2020/12/16 06:17:12;;;;;;;71.82;33.53;;;;;;;3.78;90.38;99631.75;1743585;81;21140;-64
2020/12/16 06:19:45;;;;;;;54.10;29.95;;;;;;;3.79;90.41;99628.27;1737865;81;21205;-64
2020/12/16 06:22:12;;;;;;;45.65;25.02;;;;;;;3.81;90.46;99634.27;1742739;80;21033;-64
2020/12/16 06:24:44;;;;;;;40.70;24.07;;;;;;;3.86;90.54;99635.89;1733508;81;21005;-63
2020/12/16 06:27:12;;;;;;;44.63;22.20;;;;;;;3.87;90.50;99642.77;1732755;81;21195;-64
2020/12/16 06:29:43;;;;;;;39.73;22.20;;;;;;;3.87;90.48;99647.94;1733081;80;21180;-64
2020/12/16 06:32:16;;;;;;;33.33;21.30;;;;;;;3.89;90.49;99648.73;1739734;81;21659;-64
2020/12/16 06:34:55;;;;;;;32.03;20.15;;;;;;;3.94;90.51;99644.33;1866070;74;22280;-64
2020/12/16 06:37:29;;;;;;;38.30;21.52;;;;;;;3.90;90.54;99647.88;1840633;75;21012;-64
2020/12/16 06:39:56;;;;;;;37.88;21.05;;;;;;;3.92;90.53;99656.41;1797228;77;21411;-64
2020/12/16 06:42:35;;;;;;;29.25;19.55;;;;;;;3.93;90.53;99660.72;1795227;78;21076;-64
2020/12/16 06:45:16;;;;;;;31.25;19.27;;;;;;;3.95;90.61;99664.09;1777784;78;21626;-63
2020/12/16 06:47:44;;;;;;;31.20;20.12;;;;;;;3.96;90.63;99674.41;1775086;78;21092;-64
2020/12/16 06:50:20;;;;;;;32.70;20.65;;;;;;;3.97;90.65;99676.10;1791145;77;21644;-64
2020/12/16 06:52:49;;;;;;;39.92;21.48;;;;;;;3.99;90.66;99676.92;1778999;78;21846;-65
2020/12/16 06:55:17;;;;;;;25.68;17.85;;;;;;;4.02;90.70;99684.61;1810301;77;21017;-64
2020/12/16 06:57:53;;;;;;;31.87;21.10;;;;;;;4.05;90.69;99690.16;1778924;79;21081;-64
2020/12/16 07:00:24;;;;;;;26.40;18.75;;;;;;;4.04;90.66;99697.52;1802874;77;21663;-64
2020/12/16 07:02:52;;;;;;;29.15;17.40;;;;;;;4.04;90.69;99700.09;1793689;78;21200;-63
2020/12/16 07:05:40;;;;;;;31.75;21.23;;;;;;;4.06;90.69;99708.64;1780900;78;21547;-63
2020/12/16 07:08:08;;;;;;;30.65;20.02;;;;;;;4.07;90.73;99706.48;1786614;78;21108;-64
2020/12/16 07:10:44;;;;;;;37.40;20.17;;;;;;;4.13;90.81;99712.81;1772767;79;21172;-64
2020/12/16 07:13:16;;;;;;;35.28;24.63;;;;;;;4.17;90.87;99719.63;1786728;78;21073;-64
2020/12/16 07:16:00;;;;;;;26.62;20.97;;;;;;;4.22;90.89;99713.90;1774709;78;21147;-65
2020/12/16 07:18:32;;;;;;;32.88;17.65;;;;;;;4.25;90.82;99722.88;1776106;79;22169;-65
2020/12/16 07:21:10;;;;;;;26.25;17.45;;;;;;;4.28;90.83;99723.70;1781109;78;21572;-64
2020/12/16 07:23:56;;;;;;;29.00;18.70;;;;;;;4.29;90.85;99729.30;1771906;78;21257;-65
2020/12/16 07:26:32;;;;;;;29.67;17.75;;;;;;;4.33;90.90;99732.22;1773079;79;21731;-64
2020/12/16 07:29:21;;;;;;;31.75;17.48;;;;;;;4.35;90.85;99745.97;1777446;78;21234;-65
2020/12/16 07:32:12;;;;;;;30.80;16.95;;;;;;;4.39;90.92;99737.25;1777038;78;21915;-65
2020/12/16 07:34:56;;;;;;;28.00;17.52;;;;;;;4.42;90.95;99742.34;1751560;78;21184;-65
2020/12/16 07:37:27;;;;;;;23.60;15.32;;;;;;;4.44;90.93;99745.76;1743648;81;21140;-67
2020/12/16 07:40:00;;;;;;;26.60;16.73;;;;;;;4.46;90.88;99746.58;1745628;81;21666;-65
2020/12/16 07:42:34;;;;;;;34.70;16.40;;;;;;;4.47;90.89;99745.69;1746345;81;21131;-63
2020/12/16 07:45:09;;;;;;;28.47;15.35;;;;;;;4.48;90.96;99744.79;1752979;81;22173;-65
2020/12/16 07:47:38;;;;;;;37.25;17.55;;;;;;;4.53;90.89;99755.89;1748640;81;21653;-65
2020/12/16 07:50:11;;;;;;;22.02;15.55;;;;;;;4.55;90.98;99758.45;1744686;81;21175;-65
2020/12/16 07:53:00;;;;;;;57.27;16.62;;;;;;;4.59;90.99;99758.78;1740425;81;21629;-65
2020/12/16 07:55:27;;;;;;;35.80;16.40;;;;;;;4.61;90.97;99759.16;1794808;78;21684;-65
2020/12/16 07:57:55;;;;;;;35.10;17.67;;;;;;;4.68;91.07;99762.48;1790724;79;26589;-65
2020/12/16 08:00:25;;;;;;;25.57;15.13;;;;;;;4.73;91.09;99759.77;1782428;78;21184;-65
2020/12/16 08:02:54;;;;;;;30.65;13.60;;;;;;;4.78;91.03;99763.11;1796111;78;21023;-65
2020/12/16 08:05:21;;;;;;;31.07;15.48;;;;;;;4.83;91.02;99776.79;1797090;78;21008;-66
2020/12/16 08:07:50;;;;;;;36.10;17.40;;;;;;;4.85;91.03;99781.49;1789975;79;21196;-65
2020/12/16 08:10:18;;;;;;;44.15;15.70;;;;;;;4.89;91.07;99786.99;1783662;78;21666;-65
2020/12/16 08:12:47;;;;;;;27.87;16.17;;;;;;;4.94;91.11;99803.27;1780054;79;20971;-65
2020/12/16 08:15:17;;;;;;;34.27;15.03;;;;;;;4.98;91.13;99802.30;1795624;78;20940;-65
2020/12/16 08:17:51;;;;;;;30.82;15.10;;;;;;;5.01;91.06;99802.22;1789243;78;21007;-65
2020/12/16 08:20:25;;;;;;;25.50;16.15;;;;;;;5.04;91.09;99812.53;1815484;78;20957;-65
2020/12/16 08:22:58;;;;;;;22.93;15.28;;;;;;;5.10;91.11;99814.97;1819241;77;21289;-65
2020/12/16 08:25:27;;;;;;;26.02;15.13;;;;;;;5.15;91.13;99820.89;1816766;77;21648;-65
2020/12/16 08:27:57;;;;;;;19.07;13.48;;;;;;;5.20;91.16;99825.09;1818532;78;21107;-65
2020/12/16 08:30:27;;;;;;;33.40;14.87;;;;;;;5.23;91.06;99825.02;1813430;77;21079;-65
2020/12/16 08:33:13;;;;;;;30.68;16.82;;;;;;;5.24;91.06;99834.52;1816699;77;21215;-64
2020/12/16 08:35:55;;;;;;;27.25;16.35;;;;;;;5.27;91.12;99830.55;1814548;78;22344;-65
2020/12/16 08:38:35;;;;;;;29.55;13.48;;;;;;;5.33;91.16;99829.11;1816120;78;21009;-64
2020/12/16 08:41:06;;;;;;;26.80;14.35;;;;;;;5.35;91.09;99858.41;1813383;77;21044;-65
2020/12/16 08:43:42;;;;;;;22.05;15.15;;;;;;;5.37;91.21;99862.63;1812981;77;21136;-65
2020/12/16 08:46:18;;;;;;;21.93;15.95;;;;;;;5.43;91.22;99870.70;1814357;78;21121;-65
2020/12/16 08:48:56;;;;;;;22.00;16.37;;;;;;;5.50;91.27;99867.54;1812965;78;22172;-65
2020/12/16 08:51:45;;;;;;;25.40;16.35;;;;;;;5.54;91.23;99867.41;1809437;77;21033;-65
2020/12/16 08:54:26;;;;;;;25.50;15.43;;;;;;;5.57;91.21;99874.25;1816399;77;21028;-65
2020/12/16 08:56:56;;;;;;;23.15;14.70;;;;;;;5.60;91.16;99876.34;1822114;77;21890;-65
2020/12/16 08:59:28;;;;;;;16.95;11.03;;;;;;;5.68;91.28;99879.17;1817662;78;21202;-65
2020/12/16 09:02:08;;;;;;;12.28;8.55;;;;;;;5.69;91.18;99884.78;1820193;77;21394;-65
2020/12/16 09:04:39;;;;;;;16.40;9.83;;;;;;;5.67;91.17;99885.26;1821655;78;21159;-65
2020/12/16 09:07:14;;;;;;;16.27;9.78;;;;;;;5.67;91.22;99887.84;1816571;77;21304;-65
2020/12/16 09:09:49;;;;;;;13.88;7.85;;;;;;;5.73;91.32;99887.69;1826713;77;21522;-65
2020/12/16 09:12:21;;;;;;;12.65;7.62;;;;;;;5.76;91.25;99885.02;1783074;78;21123;-65
2020/12/16 09:14:58;;;;;;;12.93;6.67;;;;;;;5.86;91.43;99887.80;1822576;77;22338;-66
2020/12/16 09:17:36;;;;;;;8.65;6.30;;;;;;;6.05;91.46;99889.52;1864765;76;22729;-63
2020/12/16 09:20:10;;;;;;;7.95;6.35;;;;;;;6.19;91.49;99889.13;1835755;75;21085;-64
2020/12/16 09:22:38;;;;;;;8.00;6.00;;;;;;;6.45;91.64;99896.22;1836254;77;21198;-64
2020/12/16 09:25:10;;;;;;;7.97;5.45;;;;;;;6.68;91.50;99890.38;1835095;77;21059;-63
2020/12/16 09:27:54;;;;;;;7.30;5.12;;;;;;;6.77;91.03;99899.19;1834128;76;20979;-63
2020/12/16 09:30:34;;;;;;;9.03;6.05;;;;;;;6.78;90.86;99890.53;1840814;77;21315;-63
2020/12/16 09:33:15;;;;;;;9.38;5.58;;;;;;;6.75;90.50;99891.92;1838280;76;22214;-64
2020/12/16 09:35:44;;;;;;;9.93;5.95;;;;;;;6.72;90.63;99891.97;1838484;76;21189;-63
2020/12/16 09:38:17;;;;;;;7.92;5.60;;;;;;;6.66;90.65;99892.16;1838126;76;21123;-64
2020/12/16 09:40:48;;;;;;;10.25;6.15;;;;;;;6.63;90.75;99887.91;1836899;76;21042;-64
2020/12/16 09:43:23;;;;;;;8.80;6.40;;;;;;;6.65;90.80;99890.47;1840110;77;21130;-65
2020/12/16 09:45:50;;;;;;;7.87;5.75;;;;;;;6.65;90.85;99891.77;1839845;76;21090;-63
2020/12/16 09:48:23;;;;;;;8.08;6.30;;;;;;;6.69;90.81;99902.45;1838973;76;21397;-66
2020/12/16 09:50:57;;;;;;;9.05;6.45;;;;;;;6.61;90.75;99895.33;1839414;77;21008;-64
2020/12/16 09:53:24;;;;;;;14.95;9.28;;;;;;;6.64;91.04;99893.97;1840237;77;21080;-66
2020/12/16 09:55:53;;;;;;;8.83;6.22;;;;;;;6.72;91.16;99894.57;1837512;77;21207;-65
2020/12/16 09:58:30;;;;;;;9.80;6.72;;;;;;;6.72;90.80;99894.57;1840601;76;21128;-65
2020/12/16 10:00:57;;;;;;;;;;;;;;;6.68;90.78;99902.05;1842335;77;21200;-64
2020/12/16 10:03:25;;;;;;;;;;;;;;;6.67;90.88;99900.36;1841659;76;20297;-65
2020/12/16 10:05:52;;;;;;;10.82;6.37;;;;;;;6.73;91.02;99902.78;1841363;76;20172;-65
2020/12/16 10:08:23;;;;;;;;;;;;;;;6.75;91.03;99898.83;1843346;76;21596;-64
2020/12/16 10:10:52;;;;;;;11.05;6.75;;;;;;;6.73;90.90;99897.59;1802905;78;20244;-64
2020/12/16 10:13:22;;;;;;;7.08;5.45;;;;;;;6.73;90.97;99901.48;1778128;78;21653;-64
2020/12/16 10:15:50;;;;;;;9.23;5.80;;;;;;;6.76;90.82;99906.58;1803077;78;21685;-65
2020/12/16 10:18:18;;;;;;;9.25;5.12;;;;;;;6.68;90.57;99905.95;1780342;78;21085;-65
2020/12/16 10:20:46;;;;;;;9.03;4.97;;;;;;;6.68;90.91;99913.73;1774746;79;21207;-64
2020/12/16 10:23:14;;;;;;;7.60;5.25;;;;;;;6.75;90.97;99912.67;1802381;79;21621;-65
2020/12/16 10:25:41;;;;;;;7.25;5.00;;;;;;;6.77;90.83;99914.76;1798024;78;21191;-65
2020/12/16 10:28:10;;;;;;;7.12;3.92;;;;;;;6.79;90.79;99922.06;1798926;78;21213;-65
2020/12/16 10:30:39;;;;;;;9.48;5.42;;;;;;;6.75;90.69;99930.84;1776553;79;21206;-64
2020/12/16 10:33:08;;;;;;;8.75;5.42;;;;;;;6.68;90.64;99927.55;1775202;80;21200;-64
2020/12/16 10:35:36;;;;;;;6.10;3.83;;;;;;;6.67;90.77;99932.80;1792940;77;21202;-64
2020/12/16 10:38:03;;;;;;;7.70;4.67;;;;;;;6.64;90.79;99935.48;1797464;78;21192;-64
2020/12/16 10:40:32;;;;;;;7.67;4.58;;;;;;;6.63;90.89;99936.36;1794718;79;21187;-63
2020/12/16 10:43:01;;;;;;;8.70;5.17;;;;;;;6.64;90.91;99936.33;1795105;77;21148;-65
2020/12/16 10:45:28;;;;;;;21.02;6.45;;;;;;;6.58;90.67;99935.62;1799011;79;21017;-63
2020/12/16 10:50:33;;;;;;;6.70;4.30;;;;;;;6.61;90.93;99939.01;1862635;75;22619;-63
2020/12/16 10:53:01;;;;;;;4.55;3.25;;;;;;;6.52;90.62;99943.58;1838228;76;21046;-63
2020/12/16 10:55:29;;;;;;;6.75;3.85;;;;;;;6.47;90.69;99954.95;1834978;77;21180;-65
2020/12/16 10:57:56;;;;;;;7.37;3.50;;;;;;;6.43;90.82;99954.61;1834262;77;21068;-65
2020/12/16 11:00:22;;;;;;;5.20;3.25;;;;;;;6.42;90.80;99952.91;1834342;77;21058;-64
2020/12/16 11:02:50;;;;;;;7.67;4.15;;;;;;;6.33;90.66;99959.66;1834613;77;21084;-63
2020/12/16 11:05:17;;;;;;;10.93;3.72;;;;;;;6.26;90.83;99954.20;1835472;77;21010;-65
2020/12/16 11:07:44;;;;;;;10.95;3.95;;;;;;;6.25;90.95;99965.03;1836727;77;21191;-65
2020/12/16 11:10:10;;;;;;;7.03;3.65;;;;;;;6.25;91.02;99969.37;1834893;76;21000;-64
2020/12/16 11:12:38;;;;;;;6.47;4.20;;;;;;;6.24;91.01;99962.45;1832823;77;21057;-64
2020/12/16 11:15:05;;;;;;;7.45;3.85;;;;;;;6.25;91.07;99964.19;1834361;77;21645;-64
2020/12/16 11:17:32;;;;;;;8.83;3.67;;;;;;;6.28;91.08;99974.47;1837283;77;21193;-64
2020/12/16 11:19:59;;;;;;;4.95;3.10;;;;;;;6.28;90.98;99977.06;1836715;77;21240;-64
2020/12/16 11:22:27;;;;;;;6.70;3.05;;;;;;;6.28;91.01;99979.66;1832624;77;21164;-64
2020/12/16 11:24:56;;;;;;;5.58;2.72;;;;;;;6.28;90.95;99971.88;1836926;77;21276;-64
2020/12/16 11:27:23;;;;;;;5.75;2.87;;;;;;;6.28;90.91;99970.13;1834666;77;21205;-63
2020/12/16 11:29:50;;;;;;;9.15;3.50;;;;;;;6.25;90.91;99977.15;1830624;77;21200;-63
2020/12/16 11:32:17;;;;;;;5.80;2.95;;;;;;;6.23;91.00;99976.33;1829256;77;21735;-63
2020/12/16 11:34:45;;;;;;;5.72;2.42;;;;;;;6.28;91.12;99982.25;1832702;76;21267;-63
2020/12/16 11:37:14;;;;;;;4.60;2.42;;;;;;;6.25;90.67;99982.33;1832493;77;21148;-64
2020/12/16 11:39:46;;;;;;;4.90;2.87;;;;;;;6.20;90.58;99988.08;1835739;77;21708;-63
2020/12/16 11:42:15;;;;;;;3.80;2.60;;;;;;;6.16;90.85;99982.55;1834308;76;21211;-63
2020/12/16 11:44:43;;;;;;;6.08;3.15;;;;;;;6.18;90.99;99995.03;1837240;77;22133;-63
2020/12/16 11:47:14;;;;;;;4.17;2.40;;;;;;;6.19;90.91;99999.31;1839987;77;21176;-63
2020/12/16 11:49:43;;;;;;;4.92;2.50;;;;;;;6.18;90.86;99998.92;1838597;76;21239;-64